Terminal Aerodrome Forecast
Issued by NWS Topeka, KS

Home | Current Version | Previous Version | Text Only | Print | Product List | Glossary Off
Versions: 1 2 3 4 5 6 7 8 9 10 11 12 13 14 15 16 17

000
FTUS43 KTOP 202339
TAFTOP
TAF
KTOP 202339Z 2100/2124 16016G24KT P6SM SCT100
     FM210500 16016G24KT P6SM BKN035 WS020/18040KT
     FM211300 18018G26KT P6SM OVC015
     FM211600 19014G22KT P6SM BKN020
     FM212200 22012KT 4SM SHRA VCTS OVC020CB=

USA.gov is the U.S. government's official web portal to all federal, state and local government web resources and services.